sensor_id;sensor_type;location;lat;lon;timestamp;P1;durP1;ratioP1;P2;durP2;ratioP2
61096;SDS011;46977;50.936;6.908;2023-05-07T00:01:17;3.38;;;2.33;;
61096;SDS011;46977;50.936;6.908;2023-05-07T00:04:21;2.20;;;1.98;;
61096;SDS011;46977;50.936;6.908;2023-05-07T00:07:24;2.15;;;1.92;;
61096;SDS011;46977;50.936;6.908;2023-05-07T00:10:27;2.75;;;2.03;;
61096;SDS011;46977;50.936;6.908;2023-05-07T00:13:29;3.60;;;2.33;;
61096;SDS011;46977;50.936;6.908;2023-05-07T00:16:37;2.60;;;2.40;;
61096;SDS011;46977;50.936;6.908;2023-05-07T00:19:39;4.50;;;2.63;;
61096;SDS011;46977;50.936;6.908;2023-05-07T00:22:42;2.60;;;2.40;;
61096;SDS011;46977;50.936;6.908;2023-05-07T00:25:45;2.40;;;2.08;;
61096;SDS011;46977;50.936;6.908;2023-05-07T00:28:47;2.42;;;2.22;;
61096;SDS011;46977;50.936;6.908;2023-05-07T00:31:49;3.15;;;2.35;;
61096;SDS011;46977;50.936;6.908;2023-05-07T00:34:52;2.33;;;2.00;;
61096;SDS011;46977;50.936;6.908;2023-05-07T00:37:56;4.30;;;2.50;;
61096;SDS011;46977;50.936;6.908;2023-05-07T00:40:58;2.83;;;2.50;;
61096;SDS011;46977;50.936;6.908;2023-05-07T00:44:00;2.70;;;2.50;;
61096;SDS011;46977;50.936;6.908;2023-05-07T00:47:04;2.50;;;2.30;;
61096;SDS011;46977;50.936;6.908;2023-05-07T00:50:07;3.33;;;2.67;;
61096;SDS011;46977;50.936;6.908;2023-05-07T00:53:13;2.40;;;2.30;;
61096;SDS011;46977;50.936;6.908;2023-05-07T00:56:16;3.20;;;2.20;;
61096;SDS011;46977;50.936;6.908;2023-05-07T00:59:18;3.40;;;2.65;;
61096;SDS011;46977;50.936;6.908;2023-05-07T01:02:21;2.60;;;2.30;;
61096;SDS011;46977;50.936;6.908;2023-05-07T01:05:23;2.58;;;2.20;;
61096;SDS011;46977;50.936;6.908;2023-05-07T01:08:28;2.95;;;2.20;;
61096;SDS011;46977;50.936;6.908;2023-05-07T01:11:31;2.08;;;1.85;;
61096;SDS011;46977;50.936;6.908;2023-05-07T01:14:33;1.90;;;1.80;;
61096;SDS011;46977;50.936;6.908;2023-05-07T01:17:36;4.43;;;1.90;;
61096;SDS011;46977;50.936;6.908;2023-05-07T01:20:41;3.30;;;2.10;;
61096;SDS011;46977;50.936;6.908;2023-05-07T01:23:45;1.98;;;1.58;;
61096;SDS011;46977;50.936;6.908;2023-05-07T01:26:48;2.53;;;2.28;;
61096;SDS011;46977;50.936;6.908;2023-05-07T01:29:52;3.10;;;2.08;;
61096;SDS011;46977;50.936;6.908;2023-05-07T01:32:57;2.17;;;2.00;;
61096;SDS011;46977;50.936;6.908;2023-05-07T01:36:01;2.22;;;2.03;;
61096;SDS011;46977;50.936;6.908;2023-05-07T01:39:06;1.83;;;1.73;;
61096;SDS011;46977;50.936;6.908;2023-05-07T01:42:10;2.38;;;1.98;;
61096;SDS011;46977;50.936;6.908;2023-05-07T01:45:12;1.52;;;1.42;;
61096;SDS011;46977;50.936;6.908;2023-05-07T01:48:14;2.45;;;1.83;;
61096;SDS011;46977;50.936;6.908;2023-05-07T01:51:17;1.77;;;1.65;;
61096;SDS011;46977;50.936;6.908;2023-05-07T01:54:26;1.90;;;1.70;;
61096;SDS011;46977;50.936;6.908;2023-05-07T01:57:32;3.17;;;1.47;;
61096;SDS011;46977;50.936;6.908;2023-05-07T02:00:34;1.95;;;1.83;;
61096;SDS011;46977;50.936;6.908;2023-05-07T02:03:37;2.60;;;1.83;;
61096;SDS011;46977;50.936;6.908;2023-05-07T02:06:46;2.67;;;1.90;;
61096;SDS011;46977;50.936;6.908;2023-05-07T02:09:51;3.58;;;1.90;;
61096;SDS011;46977;50.936;6.908;2023-05-07T02:12:54;1.90;;;1.80;;
61096;SDS011;46977;50.936;6.908;2023-05-07T02:15:57;2.10;;;1.90;;
61096;SDS011;46977;50.936;6.908;2023-05-07T02:19:00;2.50;;;1.65;;
61096;SDS011;46977;50.936;6.908;2023-05-07T02:22:03;1.88;;;1.77;;
61096;SDS011;46977;50.936;6.908;2023-05-07T02:25:07;1.58;;;1.42;;
61096;SDS011;46977;50.936;6.908;2023-05-07T02:28:09;2.45;;;1.90;;
61096;SDS011;46977;50.936;6.908;2023-05-07T02:31:22;3.33;;;1.70;;
61096;SDS011;46977;50.936;6.908;2023-05-07T02:34:24;2.15;;;1.60;;
61096;SDS011;46977;50.936;6.908;2023-05-07T02:37:27;2.83;;;2.00;;
61096;SDS011;46977;50.936;6.908;2023-05-07T02:40:30;1.88;;;1.73;;
61096;SDS011;46977;50.936;6.908;2023-05-07T02:43:35;2.00;;;1.90;;
61096;SDS011;46977;50.936;6.908;2023-05-07T02:46:38;2.10;;;1.60;;
61096;SDS011;46977;50.936;6.908;2023-05-07T02:49:43;2.85;;;2.10;;
61096;SDS011;46977;50.936;6.908;2023-05-07T02:52:46;1.88;;;1.67;;
61096;SDS011;46977;50.936;6.908;2023-05-07T02:55:50;1.77;;;1.67;;
61096;SDS011;46977;50.936;6.908;2023-05-07T02:58:52;2.72;;;1.95;;
61096;SDS011;46977;50.936;6.908;2023-05-07T03:01:57;5.15;;;2.03;;
61096;SDS011;46977;50.936;6.908;2023-05-07T03:05:00;2.60;;;2.28;;
61096;SDS011;46977;50.936;6.908;2023-05-07T03:08:03;2.05;;;1.90;;
61096;SDS011;46977;50.936;6.908;2023-05-07T03:11:07;3.58;;;2.17;;
61096;SDS011;46977;50.936;6.908;2023-05-07T03:14:10;2.00;;;1.88;;
61096;SDS011;46977;50.936;6.908;2023-05-07T03:17:12;2.30;;;1.92;;
61096;SDS011;46977;50.936;6.908;2023-05-07T03:20:15;2.17;;;1.98;;
61096;SDS011;46977;50.936;6.908;2023-05-07T03:23:17;2.10;;;1.85;;
61096;SDS011;46977;50.936;6.908;2023-05-07T03:26:21;1.80;;;1.65;;
61096;SDS011;46977;50.936;6.908;2023-05-07T03:29:24;3.67;;;2.22;;
61096;SDS011;46977;50.936;6.908;2023-05-07T03:32:26;2.47;;;2.08;;
61096;SDS011;46977;50.936;6.908;2023-05-07T03:35:28;1.90;;;1.80;;
61096;SDS011;46977;50.936;6.908;2023-05-07T03:38:31;1.63;;;1.52;;
61096;SDS011;46977;50.936;6.908;2023-05-07T03:41:34;3.95;;;2.20;;
61096;SDS011;46977;50.936;6.908;2023-05-07T03:44:37;1.77;;;1.38;;
61096;SDS011;46977;50.936;6.908;2023-05-07T03:47:39;4.50;;;1.90;;
61096;SDS011;46977;50.936;6.908;2023-05-07T03:50:43;1.60;;;1.50;;
61096;SDS011;46977;50.936;6.908;2023-05-07T03:53:48;2.72;;;1.75;;
61096;SDS011;46977;50.936;6.908;2023-05-07T03:56:52;1.65;;;1.40;;
61096;SDS011;46977;50.936;6.908;2023-05-07T03:59:55;6.10;;;2.15;;
61096;SDS011;46977;50.936;6.908;2023-05-07T04:02:57;1.63;;;1.52;;
61096;SDS011;46977;50.936;6.908;2023-05-07T04:06:03;4.68;;;1.65;;
61096;SDS011;46977;50.936;6.908;2023-05-07T04:09:08;1.90;;;1.80;;
61096;SDS011;46977;50.936;6.908;2023-05-07T04:12:14;1.65;;;1.50;;
61096;SDS011;46977;50.936;6.908;2023-05-07T04:15:17;1.50;;;1.40;;
61096;SDS011;46977;50.936;6.908;2023-05-07T04:18:19;1.35;;;1.25;;
61096;SDS011;46977;50.936;6.908;2023-05-07T04:21:23;2.25;;;1.70;;
61096;SDS011;46977;50.936;6.908;2023-05-07T04:24:26;2.28;;;1.40;;
61096;SDS011;46977;50.936;6.908;2023-05-07T04:27:30;1.80;;;1.65;;
61096;SDS011;46977;50.936;6.908;2023-05-07T04:30:32;1.77;;;1.52;;
61096;SDS011;46977;50.936;6.908;2023-05-07T04:33:37;1.67;;;1.58;;
61096;SDS011;46977;50.936;6.908;2023-05-07T04:36:43;1.60;;;1.40;;
61096;SDS011;46977;50.936;6.908;2023-05-07T04:39:47;2.45;;;1.70;;
61096;SDS011;46977;50.936;6.908;2023-05-07T04:42:51;1.73;;;1.63;;
61096;SDS011;46977;50.936;6.908;2023-05-07T04:45:55;1.58;;;1.40;;
61096;SDS011;46977;50.936;6.908;2023-05-07T04:49:00;1.40;;;1.25;;
61096;SDS011;46977;50.936;6.908;2023-05-07T04:52:03;2.33;;;1.48;;
61096;SDS011;46977;50.936;6.908;2023-05-07T04:55:06;2.85;;;1.00;;
61096;SDS011;46977;50.936;6.908;2023-05-07T04:58:14;5.82;;;1.48;;
61096;SDS011;46977;50.936;6.908;2023-05-07T05:01:18;1.20;;;1.10;;
61096;SDS011;46977;50.936;6.908;2023-05-07T05:04:20;3.20;;;1.20;;
61096;SDS011;46977;50.936;6.908;2023-05-07T05:07:23;2.13;;;1.40;;
61096;SDS011;46977;50.936;6.908;2023-05-07T05:10:26;3.47;;;2.80;;
61096;SDS011;46977;50.936;6.908;2023-05-07T05:13:31;2.15;;;1.05;;
61096;SDS011;46977;50.936;6.908;2023-05-07T05:16:34;1.63;;;1.17;;
61096;SDS011;46977;50.936;6.908;2023-05-07T05:19:37;1.30;;;1.10;;
61096;SDS011;46977;50.936;6.908;2023-05-07T05:22:40;2.45;;;1.02;;
61096;SDS011;46977;50.936;6.908;2023-05-07T05:25:43;1.67;;;1.00;;
61096;SDS011;46977;50.936;6.908;2023-05-07T05:28:49;1.10;;;1.00;;
61096;SDS011;46977;50.936;6.908;2023-05-07T05:31:55;1.13;;;0.90;;
61096;SDS011;46977;50.936;6.908;2023-05-07T05:34:59;0.90;;;0.90;;
61096;SDS011;46977;50.936;6.908;2023-05-07T05:38:02;1.77;;;1.10;;
61096;SDS011;46977;50.936;6.908;2023-05-07T05:41:05;1.13;;;1.02;;
61096;SDS011;46977;50.936;6.908;2023-05-07T05:44:08;1.50;;;0.90;;
61096;SDS011;46977;50.936;6.908;2023-05-07T05:47:11;1.40;;;0.85;;
61096;SDS011;46977;50.936;6.908;2023-05-07T05:50:13;0.77;;;0.70;;
61096;SDS011;46977;50.936;6.908;2023-05-07T05:53:16;1.67;;;1.08;;
61096;SDS011;46977;50.936;6.908;2023-05-07T05:56:19;0.73;;;0.70;;
61096;SDS011;46977;50.936;6.908;2023-05-07T05:59:22;0.80;;;0.80;;
61096;SDS011;46977;50.936;6.908;2023-05-07T06:02:26;3.92;;;0.90;;
61096;SDS011;46977;50.936;6.908;2023-05-07T06:05:29;1.17;;;0.80;;
61096;SDS011;46977;50.936;6.908;2023-05-07T06:08:32;2.40;;;0.80;;
61096;SDS011;46977;50.936;6.908;2023-05-07T06:11:35;0.95;;;0.73;;
61096;SDS011;46977;50.936;6.908;2023-05-07T06:14:39;0.70;;;0.70;;
61096;SDS011;46977;50.936;6.908;2023-05-07T06:17:42;1.13;;;0.60;;
61096;SDS011;46977;50.936;6.908;2023-05-07T06:20:45;4.78;;;0.70;;
61096;SDS011;46977;50.936;6.908;2023-05-07T06:23:57;1.15;;;0.95;;
61096;SDS011;46977;50.936;6.908;2023-05-07T06:26:59;0.77;;;0.77;;
61096;SDS011;46977;50.936;6.908;2023-05-07T06:30:05;1.67;;;0.80;;
61096;SDS011;46977;50.936;6.908;2023-05-07T06:33:09;0.90;;;0.80;;
61096;SDS011;46977;50.936;6.908;2023-05-07T06:36:12;1.38;;;0.80;;
61096;SDS011;46977;50.936;6.908;2023-05-07T06:39:14;1.08;;;0.80;;
61096;SDS011;46977;50.936;6.908;2023-05-07T06:42:17;1.35;;;0.70;;
61096;SDS011;46977;50.936;6.908;2023-05-07T06:45:25;0.93;;;0.80;;
61096;SDS011;46977;50.936;6.908;2023-05-07T06:48:29;2.35;;;0.80;;
61096;SDS011;46977;50.936;6.908;2023-05-07T06:51:37;1.17;;;0.80;;
61096;SDS011;46977;50.936;6.908;2023-05-07T06:54:39;2.22;;;0.70;;
61096;SDS011;46977;50.936;6.908;2023-05-07T06:57:42;2.63;;;0.80;;
61096;SDS011;46977;50.936;6.908;2023-05-07T07:00:46;1.17;;;0.60;;
61096;SDS011;46977;50.936;6.908;2023-05-07T07:03:49;1.33;;;0.60;;
61096;SDS011;46977;50.936;6.908;2023-05-07T07:06:51;3.15;;;0.85;;
61096;SDS011;46977;50.936;6.908;2023-05-07T07:09:54;1.85;;;0.73;;
61096;SDS011;46977;50.936;6.908;2023-05-07T07:12:57;0.68;;;0.68;;
61096;SDS011;46977;50.936;6.908;2023-05-07T07:16:01;2.35;;;0.90;;
61096;SDS011;46977;50.936;6.908;2023-05-07T07:19:04;1.20;;;0.80;;
61096;SDS011;46977;50.936;6.908;2023-05-07T07:22:06;0.63;;;0.63;;
61096;SDS011;46977;50.936;6.908;2023-05-07T07:25:09;2.47;;;1.25;;
61096;SDS011;46977;50.936;6.908;2023-05-07T07:28:13;1.20;;;0.82;;
61096;SDS011;46977;50.936;6.908;2023-05-07T07:31:17;1.30;;;0.70;;
61096;SDS011;46977;50.936;6.908;2023-05-07T07:34:20;0.70;;;0.70;;
61096;SDS011;46977;50.936;6.908;2023-05-07T07:37:23;0.80;;;0.80;;
61096;SDS011;46977;50.936;6.908;2023-05-07T07:40:27;1.35;;;0.70;;
61096;SDS011;46977;50.936;6.908;2023-05-07T07:43:30;1.70;;;0.80;;
61096;SDS011;46977;50.936;6.908;2023-05-07T07:46:34;1.45;;;1.10;;
61096;SDS011;46977;50.936;6.908;2023-05-07T07:49:37;1.17;;;0.73;;
61096;SDS011;46977;50.936;6.908;2023-05-07T07:52:41;1.92;;;0.90;;
61096;SDS011;46977;50.936;6.908;2023-05-07T07:55:44;1.35;;;0.90;;
61096;SDS011;46977;50.936;6.908;2023-05-07T07:58:50;1.77;;;0.70;;
61096;SDS011;46977;50.936;6.908;2023-05-07T08:01:55;1.77;;;0.88;;
61096;SDS011;46977;50.936;6.908;2023-05-07T08:05:04;1.17;;;0.80;;
61096;SDS011;46977;50.936;6.908;2023-05-07T08:08:06;1.80;;;0.77;;
61096;SDS011;46977;50.936;6.908;2023-05-07T08:11:12;1.10;;;1.00;;
61096;SDS011;46977;50.936;6.908;2023-05-07T08:14:14;0.70;;;0.70;;
61096;SDS011;46977;50.936;6.908;2023-05-07T08:17:21;1.08;;;0.77;;
61096;SDS011;46977;50.936;6.908;2023-05-07T08:20:25;1.73;;;0.70;;
61096;SDS011;46977;50.936;6.908;2023-05-07T08:23:28;1.08;;;0.80;;
61096;SDS011;46977;50.936;6.908;2023-05-07T08:26:31;1.00;;;0.85;;
61096;SDS011;46977;50.936;6.908;2023-05-07T08:29:33;2.25;;;1.00;;
61096;SDS011;46977;50.936;6.908;2023-05-07T08:32:37;2.30;;;0.95;;
61096;SDS011;46977;50.936;6.908;2023-05-07T08:35:40;1.08;;;0.75;;
61096;SDS011;46977;50.936;6.908;2023-05-07T08:38:43;2.28;;;1.08;;
61096;SDS011;46977;50.936;6.908;2023-05-07T08:41:48;2.65;;;0.90;;
61096;SDS011;46977;50.936;6.908;2023-05-07T08:44:50;0.60;;;0.60;;
61096;SDS011;46977;50.936;6.908;2023-05-07T08:47:59;0.70;;;0.68;;
61096;SDS011;46977;50.936;6.908;2023-05-07T08:51:11;1.23;;;0.80;;
61096;SDS011;46977;50.936;6.908;2023-05-07T08:54:16;1.10;;;0.80;;
61096;SDS011;46977;50.936;6.908;2023-05-07T08:57:19;1.08;;;0.90;;
61096;SDS011;46977;50.936;6.908;2023-05-07T09:00:23;1.85;;;0.80;;
61096;SDS011;46977;50.936;6.908;2023-05-07T09:03:29;0.80;;;0.77;;
61096;SDS011;46977;50.936;6.908;2023-05-07T09:06:33;1.65;;;0.70;;
61096;SDS011;46977;50.936;6.908;2023-05-07T09:09:36;0.60;;;0.60;;
61096;SDS011;46977;50.936;6.908;2023-05-07T09:12:39;1.45;;;0.70;;
61096;SDS011;46977;50.936;6.908;2023-05-07T09:15:44;1.50;;;0.70;;
61096;SDS011;46977;50.936;6.908;2023-05-07T09:18:48;0.98;;;0.70;;
61096;SDS011;46977;50.936;6.908;2023-05-07T09:21:57;1.42;;;0.75;;
61096;SDS011;46977;50.936;6.908;2023-05-07T09:25:00;1.02;;;0.60;;
61096;SDS011;46977;50.936;6.908;2023-05-07T09:28:03;0.82;;;0.80;;
61096;SDS011;46977;50.936;6.908;2023-05-07T09:31:07;0.77;;;0.70;;
61096;SDS011;46977;50.936;6.908;2023-05-07T09:34:11;1.20;;;1.00;;
61096;SDS011;46977;50.936;6.908;2023-05-07T09:37:16;1.50;;;0.63;;
61096;SDS011;46977;50.936;6.908;2023-05-07T09:40:20;0.60;;;0.60;;
61096;SDS011;46977;50.936;6.908;2023-05-07T09:43:25;1.42;;;0.60;;
61096;SDS011;46977;50.936;6.908;2023-05-07T09:46:31;1.20;;;1.10;;
61096;SDS011;46977;50.936;6.908;2023-05-07T09:49:42;1.42;;;0.57;;
61096;SDS011;46977;50.936;6.908;2023-05-07T09:52:54;0.70;;;0.60;;
61096;SDS011;46977;50.936;6.908;2023-05-07T09:55:57;1.17;;;0.60;;
61096;SDS011;46977;50.936;6.908;2023-05-07T09:59:00;0.65;;;0.57;;
61096;SDS011;46977;50.936;6.908;2023-05-07T10:02:06;1.77;;;0.70;;
61096;SDS011;46977;50.936;6.908;2023-05-07T10:05:17;0.70;;;0.70;;
61096;SDS011;46977;50.936;6.908;2023-05-07T10:08:20;2.63;;;0.70;;
61096;SDS011;46977;50.936;6.908;2023-05-07T10:11:26;1.45;;;0.60;;
61096;SDS011;46977;50.936;6.908;2023-05-07T10:14:29;1.77;;;0.60;;
61096;SDS011;46977;50.936;6.908;2023-05-07T10:17:32;1.63;;;0.63;;
61096;SDS011;46977;50.936;6.908;2023-05-07T10:20:36;1.13;;;0.73;;
61096;SDS011;46977;50.936;6.908;2023-05-07T10:23:40;1.30;;;0.60;;
61096;SDS011;46977;50.936;6.908;2023-05-07T10:26:44;1.27;;;0.70;;
61096;SDS011;46977;50.936;6.908;2023-05-07T10:29:50;0.90;;;0.70;;
61096;SDS011;46977;50.936;6.908;2023-05-07T10:32:59;0.90;;;0.50;;
61096;SDS011;46977;50.936;6.908;2023-05-07T10:36:10;1.00;;;0.70;;
61096;SDS011;46977;50.936;6.908;2023-05-07T10:39:12;1.17;;;0.70;;
61096;SDS011;46977;50.936;6.908;2023-05-07T10:42:15;1.27;;;0.55;;
61096;SDS011;46977;50.936;6.908;2023-05-07T10:45:24;1.27;;;0.57;;
61096;SDS011;46977;50.936;6.908;2023-05-07T10:48:28;2.65;;;0.68;;
61096;SDS011;46977;50.936;6.908;2023-05-07T10:51:39;1.25;;;0.70;;
61096;SDS011;46977;50.936;6.908;2023-05-07T10:55:18;1.25;;;0.60;;
61096;SDS011;46977;50.936;6.908;2023-05-07T10:58:48;0.52;;;0.52;;
61096;SDS011;46977;50.936;6.908;2023-05-07T11:02:03;1.92;;;0.70;;
61096;SDS011;46977;50.936;6.908;2023-05-07T11:05:19;4.30;;;0.47;;
61096;SDS011;46977;50.936;6.908;2023-05-07T11:08:53;0.68;;;0.50;;
61096;SDS011;46977;50.936;6.908;2023-05-07T11:12:01;1.05;;;0.45;;
61096;SDS011;46977;50.936;6.908;2023-05-07T11:15:15;0.95;;;0.50;;
61096;SDS011;46977;50.936;6.908;2023-05-07T11:18:18;0.77;;;0.60;;
61096;SDS011;46977;50.936;6.908;2023-05-07T11:21:33;1.30;;;0.60;;
61096;SDS011;46977;50.936;6.908;2023-05-07T11:24:57;0.68;;;0.52;;
61096;SDS011;46977;50.936;6.908;2023-05-07T11:28:05;0.85;;;0.50;;
61096;SDS011;46977;50.936;6.908;2023-05-07T11:31:09;0.50;;;0.50;;
61096;SDS011;46977;50.936;6.908;2023-05-07T11:34:13;1.77;;;0.85;;
61096;SDS011;46977;50.936;6.908;2023-05-07T11:37:16;1.45;;;0.57;;
61096;SDS011;46977;50.936;6.908;2023-05-07T11:40:30;0.95;;;0.50;;
61096;SDS011;46977;50.936;6.908;2023-05-07T11:43:32;1.63;;;0.40;;
61096;SDS011;46977;50.936;6.908;2023-05-07T11:46:37;1.27;;;0.52;;
61096;SDS011;46977;50.936;6.908;2023-05-07T11:49:39;2.15;;;0.68;;
61096;SDS011;46977;50.936;6.908;2023-05-07T11:52:49;1.83;;;0.80;;
61096;SDS011;46977;50.936;6.908;2023-05-07T11:55:54;1.17;;;0.60;;
61096;SDS011;46977;50.936;6.908;2023-05-07T11:58:56;1.15;;;0.50;;
61096;SDS011;46977;50.936;6.908;2023-05-07T12:01:59;2.03;;;0.50;;
61096;SDS011;46977;50.936;6.908;2023-05-07T12:05:01;0.63;;;0.63;;
61096;SDS011;46977;50.936;6.908;2023-05-07T12:08:04;0.88;;;0.40;;
61096;SDS011;46977;50.936;6.908;2023-05-07T12:11:08;0.73;;;0.52;;
61096;SDS011;46977;50.936;6.908;2023-05-07T12:14:14;0.60;;;0.60;;
61096;SDS011;46977;50.936;6.908;2023-05-07T12:17:19;1.27;;;0.60;;
61096;SDS011;46977;50.936;6.908;2023-05-07T12:20:22;1.15;;;0.77;;
61096;SDS011;46977;50.936;6.908;2023-05-07T12:23:24;0.52;;;0.52;;
61096;SDS011;46977;50.936;6.908;2023-05-07T12:26:28;1.30;;;0.75;;
61096;SDS011;46977;50.936;6.908;2023-05-07T12:29:30;1.15;;;0.60;;
61096;SDS011;46977;50.936;6.908;2023-05-07T12:32:33;7.13;;;6.53;;
61096;SDS011;46977;50.936;6.908;2023-05-07T12:35:39;2.05;;;0.90;;
61096;SDS011;46977;50.936;6.908;2023-05-07T12:38:42;1.20;;;0.50;;
61096;SDS011;46977;50.936;6.908;2023-05-07T12:41:54;1.17;;;0.60;;
61096;SDS011;46977;50.936;6.908;2023-05-07T12:44:56;1.52;;;0.50;;
61096;SDS011;46977;50.936;6.908;2023-05-07T12:48:01;0.63;;;0.50;;
61096;SDS011;46977;50.936;6.908;2023-05-07T12:51:04;0.85;;;0.60;;
61096;SDS011;46977;50.936;6.908;2023-05-07T12:54:08;0.60;;;0.60;;
61096;SDS011;46977;50.936;6.908;2023-05-07T12:57:11;1.98;;;0.50;;
61096;SDS011;46977;50.936;6.908;2023-05-07T13:00:14;1.70;;;0.70;;
61096;SDS011;46977;50.936;6.908;2023-05-07T13:03:23;0.85;;;0.65;;
61096;SDS011;46977;50.936;6.908;2023-05-07T13:06:26;1.35;;;1.00;;
61096;SDS011;46977;50.936;6.908;2023-05-07T13:09:29;2.30;;;1.40;;
61096;SDS011;46977;50.936;6.908;2023-05-07T13:12:32;0.85;;;0.70;;
61096;SDS011;46977;50.936;6.908;2023-05-07T13:15:35;1.45;;;0.90;;
61096;SDS011;46977;50.936;6.908;2023-05-07T13:18:37;1.75;;;0.80;;
61096;SDS011;46977;50.936;6.908;2023-05-07T13:21:41;0.90;;;0.80;;
61096;SDS011;46977;50.936;6.908;2023-05-07T13:24:43;1.73;;;0.90;;
61096;SDS011;46977;50.936;6.908;2023-05-07T13:27:47;0.80;;;0.80;;
61096;SDS011;46977;50.936;6.908;2023-05-07T13:31:03;4.18;;;1.00;;
61096;SDS011;46977;50.936;6.908;2023-05-07T13:34:06;1.38;;;0.70;;
61096;SDS011;46977;50.936;6.908;2023-05-07T13:37:10;1.85;;;1.00;;
61096;SDS011;46977;50.936;6.908;2023-05-07T13:40:13;2.67;;;0.93;;
61096;SDS011;46977;50.936;6.908;2023-05-07T13:43:17;1.73;;;1.00;;
61096;SDS011;46977;50.936;6.908;2023-05-07T13:46:20;1.50;;;0.70;;
61096;SDS011;46977;50.936;6.908;2023-05-07T13:49:23;2.53;;;0.80;;
61096;SDS011;46977;50.936;6.908;2023-05-07T13:52:26;0.95;;;0.80;;
61096;SDS011;46977;50.936;6.908;2023-05-07T13:55:28;1.35;;;0.70;;
61096;SDS011;46977;50.936;6.908;2023-05-07T13:58:32;0.60;;;0.60;;
61096;SDS011;46977;50.936;6.908;2023-05-07T14:01:34;4.18;;;0.80;;
61096;SDS011;46977;50.936;6.908;2023-05-07T14:04:37;2.28;;;1.15;;
61096;SDS011;46977;50.936;6.908;2023-05-07T14:07:39;0.93;;;0.80;;
61096;SDS011;46977;50.936;6.908;2023-05-07T14:10:41;0.95;;;0.70;;
61096;SDS011;46977;50.936;6.908;2023-05-07T14:13:45;2.75;;;0.80;;
61096;SDS011;46977;50.936;6.908;2023-05-07T14:16:47;1.42;;;0.70;;
61096;SDS011;46977;50.936;6.908;2023-05-07T14:19:52;1.08;;;0.73;;
61096;SDS011;46977;50.936;6.908;2023-05-07T14:22:58;1.67;;;0.80;;
61096;SDS011;46977;50.936;6.908;2023-05-07T14:26:00;1.63;;;0.90;;
61096;SDS011;46977;50.936;6.908;2023-05-07T14:29:04;2.75;;;0.90;;
61096;SDS011;46977;50.936;6.908;2023-05-07T14:32:06;0.93;;;0.80;;
61096;SDS011;46977;50.936;6.908;2023-05-07T14:35:08;1.13;;;1.02;;
61096;SDS011;46977;50.936;6.908;2023-05-07T14:38:11;0.80;;;0.80;;
61096;SDS011;46977;50.936;6.908;2023-05-07T14:41:14;3.85;;;1.30;;
61096;SDS011;46977;50.936;6.908;2023-05-07T14:44:19;1.00;;;0.90;;
61096;SDS011;46977;50.936;6.908;2023-05-07T14:47:21;1.33;;;1.05;;
61096;SDS011;46977;50.936;6.908;2023-05-07T14:50:24;0.80;;;0.70;;
61096;SDS011;46977;50.936;6.908;2023-05-07T14:53:26;1.77;;;1.02;;
61096;SDS011;46977;50.936;6.908;2023-05-07T14:56:28;1.65;;;1.02;;
61096;SDS011;46977;50.936;6.908;2023-05-07T14:59:35;1.98;;;1.08;;
61096;SDS011;46977;50.936;6.908;2023-05-07T15:02:38;2.85;;;1.55;;
61096;SDS011;46977;50.936;6.908;2023-05-07T15:05:40;2.55;;;1.75;;
61096;SDS011;46977;50.936;6.908;2023-05-07T15:08:43;1.65;;;1.48;;
61096;SDS011;46977;50.936;6.908;2023-05-07T15:11:45;1.80;;;1.35;;
61096;SDS011;46977;50.936;6.908;2023-05-07T15:14:49;1.92;;;0.80;;
61096;SDS011;46977;50.936;6.908;2023-05-07T15:17:51;1.80;;;0.70;;
61096;SDS011;46977;50.936;6.908;2023-05-07T15:20:54;1.45;;;0.80;;
61096;SDS011;46977;50.936;6.908;2023-05-07T15:23:57;1.48;;;0.90;;
61096;SDS011;46977;50.936;6.908;2023-05-07T15:26:59;1.42;;;0.90;;
61096;SDS011;46977;50.936;6.908;2023-05-07T15:30:05;1.35;;;0.80;;
61096;SDS011;46977;50.936;6.908;2023-05-07T15:33:08;1.35;;;0.80;;
61096;SDS011;46977;50.936;6.908;2023-05-07T15:36:10;1.45;;;1.23;;
61096;SDS011;46977;50.936;6.908;2023-05-07T15:39:13;1.13;;;0.60;;
61096;SDS011;46977;50.936;6.908;2023-05-07T15:42:15;1.30;;;0.90;;
61096;SDS011;46977;50.936;6.908;2023-05-07T15:45:19;1.60;;;0.90;;
61096;SDS011;46977;50.936;6.908;2023-05-07T15:48:21;1.75;;;0.93;;
61096;SDS011;46977;50.936;6.908;2023-05-07T15:51:23;1.50;;;1.38;;
61096;SDS011;46977;50.936;6.908;2023-05-07T15:54:26;1.60;;;1.30;;
61096;SDS011;46977;50.936;6.908;2023-05-07T15:57:28;2.05;;;1.52;;
61096;SDS011;46977;50.936;6.908;2023-05-07T16:00:32;2.72;;;1.88;;
61096;SDS011;46977;50.936;6.908;2023-05-07T16:03:36;2.25;;;2.05;;
61096;SDS011;46977;50.936;6.908;2023-05-07T16:06:41;2.17;;;1.40;;
61096;SDS011;46977;50.936;6.908;2023-05-07T16:09:45;5.72;;;5.18;;
61096;SDS011;46977;50.936;6.908;2023-05-07T16:12:48;4.18;;;3.00;;
61096;SDS011;46977;50.936;6.908;2023-05-07T16:15:55;2.05;;;1.60;;
61096;SDS011;46977;50.936;6.908;2023-05-07T16:18:59;1.52;;;1.33;;
61096;SDS011;46977;50.936;6.908;2023-05-07T16:22:02;0.90;;;0.90;;
61096;SDS011;46977;50.936;6.908;2023-05-07T16:25:05;1.05;;;0.90;;
61096;SDS011;46977;50.936;6.908;2023-05-07T16:28:08;1.08;;;0.80;;
61096;SDS011;46977;50.936;6.908;2023-05-07T16:31:12;1.60;;;1.50;;
61096;SDS011;46977;50.936;6.908;2023-05-07T16:34:15;4.10;;;1.20;;
61096;SDS011;46977;50.936;6.908;2023-05-07T16:37:17;2.65;;;2.45;;
61096;SDS011;46977;50.936;6.908;2023-05-07T16:40:20;1.45;;;1.38;;
61096;SDS011;46977;50.936;6.908;2023-05-07T16:43:22;1.40;;;1.30;;
61096;SDS011;46977;50.936;6.908;2023-05-07T16:46:26;1.58;;;1.38;;
61096;SDS011;46977;50.936;6.908;2023-05-07T16:49:31;2.45;;;1.50;;
61096;SDS011;46977;50.936;6.908;2023-05-07T16:52:33;1.30;;;1.20;;
61096;SDS011;46977;50.936;6.908;2023-05-07T16:55:36;2.55;;;1.25;;
61096;SDS011;46977;50.936;6.908;2023-05-07T16:58:40;1.30;;;1.20;;
61096;SDS011;46977;50.936;6.908;2023-05-07T17:01:43;2.40;;;1.13;;
61096;SDS011;46977;50.936;6.908;2023-05-07T17:04:46;1.50;;;1.40;;
61096;SDS011;46977;50.936;6.908;2023-05-07T17:07:48;1.13;;;1.00;;
61096;SDS011;46977;50.936;6.908;2023-05-07T17:10:50;1.85;;;1.20;;
61096;SDS011;46977;50.936;6.908;2023-05-07T17:13:53;1.10;;;0.90;;
61096;SDS011;46977;50.936;6.908;2023-05-07T17:16:57;1.38;;;1.10;;
61096;SDS011;46977;50.936;6.908;2023-05-07T17:19:59;1.90;;;1.20;;
61096;SDS011;46977;50.936;6.908;2023-05-07T17:23:03;1.33;;;0.90;;
61096;SDS011;46977;50.936;6.908;2023-05-07T17:26:10;0.98;;;0.70;;
61096;SDS011;46977;50.936;6.908;2023-05-07T17:29:13;1.63;;;1.23;;
61096;SDS011;46977;50.936;6.908;2023-05-07T17:32:16;1.30;;;0.88;;
61096;SDS011;46977;50.936;6.908;2023-05-07T17:35:18;0.60;;;0.60;;
61096;SDS011;46977;50.936;6.908;2023-05-07T17:38:21;1.95;;;0.80;;
61096;SDS011;46977;50.936;6.908;2023-05-07T17:41:25;1.52;;;0.90;;
61096;SDS011;46977;50.936;6.908;2023-05-07T17:44:30;1.35;;;1.25;;
61096;SDS011;46977;50.936;6.908;2023-05-07T17:47:35;2.05;;;1.20;;
61096;SDS011;46977;50.936;6.908;2023-05-07T17:50:38;2.28;;;1.33;;
61096;SDS011;46977;50.936;6.908;2023-05-07T17:53:40;2.35;;;1.30;;
61096;SDS011;46977;50.936;6.908;2023-05-07T17:56:42;1.08;;;0.98;;
61096;SDS011;46977;50.936;6.908;2023-05-07T17:59:45;1.05;;;0.95;;
61096;SDS011;46977;50.936;6.908;2023-05-07T18:02:48;1.27;;;1.17;;
61096;SDS011;46977;50.936;6.908;2023-05-07T18:05:52;3.00;;;1.30;;
61096;SDS011;46977;50.936;6.908;2023-05-07T18:08:54;2.80;;;1.35;;
61096;SDS011;46977;50.936;6.908;2023-05-07T18:11:57;2.05;;;1.25;;
61096;SDS011;46977;50.936;6.908;2023-05-07T18:15:00;1.92;;;1.20;;
61096;SDS011;46977;50.936;6.908;2023-05-07T18:18:04;1.80;;;1.40;;
61096;SDS011;46977;50.936;6.908;2023-05-07T18:21:08;2.55;;;1.63;;
61096;SDS011;46977;50.936;6.908;2023-05-07T18:24:16;2.30;;;1.70;;
61096;SDS011;46977;50.936;6.908;2023-05-07T18:27:18;1.88;;;1.45;;
61096;SDS011;46977;50.936;6.908;2023-05-07T18:30:20;2.38;;;1.90;;